Terminal Aerodrome Forecast
Issued by NWS

Home | Current Version | Previous Version | Text Only | Print | Product List | Glossary On
Versions: 1 2 3 4 5 6 7 8 9 10 11 12 13 14 15
000
FTUS45 KGJT 280537
TAFVEL
TAF
KVEL 280537Z 2806/2906 00000KT P6SM BKN110
     FM281700 20007KT P6SM SCT110
     FM282000 23008KT P6SM VCSH SCT070 BKN110
     FM290300 34005KT P6SM SCT200=

USA.gov is the U.S. government's official web portal to all federal, state and local government web resources and services.